Time;durP1;ratioP1;P1;durP2;ratioP2;P2;SDS_P1;SDS_P2;PMS_P1;PMS_P2;Temp;Humidity;BMP_temperature;BMP_pressure;BME280_temperature;BME280_humidity;BME280_pressure;Samples;Min_cycle;Max_cycle;Signal;HPM_P1;HPM_P2
2023/06/27 00:02:46;;;;;;;7.07;5.53;;;19.20;99.90;;;;;;10352065;28;20788;-87
2023/06/27 00:07:49;;;;;;;11.82;8.02;;;19.30;99.90;;;;;;10369266;28;20286;-87
2023/06/27 00:12:52;;;;;;;9.73;5.95;;;19.20;99.90;;;;;;10368043;28;20372;-87
2023/06/27 00:17:55;;;;;;;6.88;6.28;;;19.20;99.90;;;;;;10347646;28;21988;-87
2023/06/27 00:23:16;;;;;;;9.90;6.18;;;19.10;99.90;;;;;;10369988;28;20247;-87
2023/06/27 00:28:18;;;;;;;6.90;5.70;;;19.10;99.90;;;;;;10336984;28;20271;-87
2023/06/27 00:33:21;;;;;;;6.03;5.50;;;18.90;99.90;;;;;;10337027;28;20292;-88
2023/06/27 00:38:25;;;;;;;10.60;5.30;;;19.00;99.90;;;;;;10301485;28;20262;-87
2023/06/27 00:43:28;;;;;;;5.70;4.82;;;19.10;99.90;;;;;;10351812;28;20244;-87
2023/06/27 00:48:32;;;;;;;6.35;5.07;;;18.90;99.90;;;;;;10357397;28;20260;-86
2023/06/27 00:53:34;;;;;;;5.15;4.75;;;18.80;99.90;;;;;;10336238;28;20239;-86
2023/06/27 00:58:37;;;;;;;7.28;5.40;;;18.90;99.90;;;;;;10349689;28;20247;-87
2023/06/27 01:03:39;;;;;;;6.07;5.03;;;19.00;99.90;;;;;;10323561;28;20864;-87
2023/06/27 01:08:50;;;;;;;9.57;5.22;;;19.10;99.90;;;;;;10325236;28;20260;-87
2023/06/27 01:13:58;;;;;;;7.20;5.15;;;19.10;99.90;;;;;;10340169;28;20259;-86
2023/06/27 01:19:03;;;;;;;5.60;5.05;;;19.00;99.90;;;;;;10349729;28;20294;-87
2023/06/27 01:24:07;;;;;;;8.40;5.38;;;18.80;99.90;;;;;;10327173;28;20267;-87
2023/06/27 01:29:11;;;;;;;11.05;5.25;;;19.00;99.90;;;;;;10348221;28;20263;-87
2023/06/27 01:34:33;;;;;;;6.22;5.20;;;19.10;99.90;;;;;;10362653;28;20688;-86
2023/06/27 01:39:42;;;;;;;6.07;4.70;;;19.10;99.90;;;;;;10349382;28;20313;-87
2023/06/27 01:44:46;;;;;;;9.10;3.92;;;18.90;99.90;;;;;;10346872;28;20294;-87
2023/06/27 01:49:50;;;;;;;4.88;4.38;;;18.80;99.90;;;;;;10346004;28;20268;-86
2023/06/27 01:54:52;;;;;;;4.88;4.30;;;18.70;99.90;;;;;;10328093;28;20306;-87
2023/06/27 01:59:55;;;;;;;4.43;3.90;;;18.90;99.90;;;;;;10348507;28;20248;-87
2023/06/27 02:04:58;;;;;;;7.05;3.90;;;18.70;99.90;;;;;;10308775;28;20681;-87
2023/06/27 02:10:00;;;;;;;4.25;3.78;;;18.80;99.90;;;;;;10328900;28;20280;-87
2023/06/27 02:15:03;;;;;;;8.10;4.07;;;18.90;99.90;;;;;;10363898;28;20310;-87
2023/06/27 02:20:06;;;;;;;5.82;3.85;;;18.90;99.90;;;;;;10348446;28;20650;-87
2023/06/27 02:25:09;;;;;;;4.20;3.80;;;19.00;99.90;;;;;;10348692;28;20244;-87
2023/06/27 02:30:12;;;;;;;5.30;3.65;;;19.00;99.90;;;;;;10330907;28;20260;-87
2023/06/27 02:35:16;;;;;;;8.57;3.88;;;18.80;99.90;;;;;;10357926;28;20240;-87
2023/06/27 02:40:18;;;;;;;4.85;3.25;;;18.80;99.90;;;;;;10347951;28;20290;-87
2023/06/27 02:45:21;;;;;;;3.20;2.80;;;18.70;99.90;;;;;;10347952;28;20239;-87
2023/06/27 02:50:24;;;;;;;3.63;3.22;;;18.70;99.90;;;;;;10311334;28;20660;-87
2023/06/27 02:55:26;;;;;;;3.40;2.88;;;18.80;99.90;;;;;;10324309;28;20241;-88
2023/06/27 03:00:29;;;;;;;5.88;3.28;;;18.90;99.90;;;;;;10345723;28;20272;-87
2023/06/27 03:05:32;;;;;;;7.10;3.78;;;19.10;99.90;;;;;;10355488;28;20302;-87
2023/06/27 03:10:35;;;;;;;7.72;4.03;;;19.40;99.90;;;;;;10354602;28;20724;-87
2023/06/27 03:15:38;;;;;;;7.03;4.00;;;19.50;99.90;;;;;;10292643;28;20857;-87
2023/06/27 03:20:42;;;;;;;4.03;2.53;;;19.30;99.90;;;;;;10274010;28;20209;-87
2023/06/27 03:25:45;;;;;;;8.45;3.50;;;19.40;99.90;;;;;;10291762;28;20304;-87
2023/06/27 03:30:47;;;;;;;9.35;3.70;;;19.40;99.90;;;;;;10329906;28;20714;-87
2023/06/27 03:35:51;;;;;;;7.75;3.40;;;19.40;99.90;;;;;;10355704;28;20227;-87
2023/06/27 03:40:54;;;;;;;4.55;3.50;;;19.00;99.90;;;;;;10342423;28;20252;-87
2023/06/27 03:45:56;;;;;;;4.97;3.10;;;18.90;99.90;;;;;;10313489;28;20637;-87
2023/06/27 03:50:59;;;;;;;8.77;3.22;;;18.70;99.90;;;;;;10330743;28;20280;-87
2023/06/27 03:56:02;;;;;;;6.50;3.97;;;18.80;99.90;;;;;;10312188;28;20695;-87
2023/06/27 04:01:06;;;;;;;8.20;3.10;;;19.00;99.90;;;;;;10324945;28;20624;-87
2023/06/27 04:06:09;;;;;;;5.03;3.67;;;19.00;99.90;;;;;;10361297;28;20287;-87
2023/06/27 04:11:11;;;;;;;5.75;2.42;;;18.80;99.90;;;;;;10350353;28;20406;-87
2023/06/27 04:16:14;;;;;;;4.03;2.95;;;19.00;99.90;;;;;;10370318;28;20773;-87
2023/06/27 04:21:18;;;;;;;7.95;3.45;;;19.10;99.90;;;;;;10341132;28;20212;-87
2023/06/27 04:26:21;;;;;;;5.63;3.55;;;19.20;99.90;;;;;;10312203;28;20252;-87
2023/06/27 04:31:25;;;;;;;9.60;3.17;;;18.90;99.90;;;;;;10329830;28;20205;-87
2023/06/27 04:36:28;;;;;;;9.43;2.67;;;19.00;99.90;;;;;;10311646;28;20757;-87
2023/06/27 04:41:31;;;;;;;4.80;2.75;;;19.20;99.90;;;;;;10329080;28;20239;-87
2023/06/27 04:46:33;;;;;;;10.20;3.87;;;19.40;99.90;;;;;;10369186;28;20320;-87
2023/06/27 04:51:36;;;;;;;4.97;2.60;;;19.40;99.90;;;;;;10340263;28;20233;-87
2023/06/27 04:56:39;;;;;;;6.72;3.67;;;19.40;99.90;;;;;;10341444;28;20312;-87
2023/06/27 05:01:42;;;;;;;4.57;3.40;;;19.60;99.90;;;;;;10367489;28;20694;-88
2023/06/27 05:06:44;;;;;;;4.03;2.75;;;19.90;99.90;;;;;;10332615;28;20241;-86
2023/06/27 05:11:47;;;;;;;5.25;3.03;;;19.90;99.90;;;;;;10309578;28;20252;-88
2023/06/27 05:16:53;;;;;;;3.75;3.13;;;20.20;98.80;;;;;;10325675;28;20217;-87
2023/06/27 05:21:56;;;;;;;9.15;2.10;;;20.20;99.90;;;;;;10366226;28;20240;-88
2023/06/27 05:26:58;;;;;;;2.20;1.30;;;20.20;96.00;;;;;;10308831;28;20253;-88
2023/06/27 05:32:01;;;;;;;5.95;2.10;;;20.20;95.70;;;;;;10327351;28;20240;-87
2023/06/27 05:37:04;;;;;;;6.88;2.08;;;19.50;95.20;;;;;;10325885;28;20295;-87
2023/06/27 05:42:08;;;;;;;8.98;2.50;;;19.30;94.60;;;;;;10308563;28;20299;-86
2023/06/27 05:47:10;;;;;;;3.50;1.90;;;18.90;95.00;;;;;;10308799;28;20311;-87
2023/06/27 05:52:13;;;;;;;3.90;2.00;;;18.90;96.40;;;;;;10344429;28;20647;-87
2023/06/27 05:57:16;;;;;;;3.95;1.98;;;18.70;97.20;;;;;;10366596;28;20256;-87
2023/06/27 06:02:18;;;;;;;3.63;1.85;;;18.90;96.50;;;;;;10362827;28;20244;-87
2023/06/27 06:07:23;;;;;;;4.10;1.80;;;19.20;97.80;;;;;;10346442;28;20256;-87
2023/06/27 06:12:26;;;;;;;7.50;1.95;;;19.20;95.30;;;;;;10325194;28;20257;-87
2023/06/27 06:17:28;;;;;;;4.18;2.13;;;19.20;94.50;;;;;;10325854;28;20305;-87
2023/06/27 06:22:31;;;;;;;11.23;2.72;;;19.40;97.00;;;;;;10325342;28;20244;-87
2023/06/27 06:27:34;;;;;;;7.35;1.83;;;19.80;96.10;;;;;;10310153;28;21455;-86
2023/06/27 06:32:36;;;;;;;4.53;2.50;;;19.90;94.10;;;;;;10366149;28;20236;-87
2023/06/27 06:37:39;;;;;;;5.03;1.98;;;19.80;93.50;;;;;;10349805;28;20278;-87
2023/06/27 06:42:42;;;;;;;2.65;1.67;;;19.50;91.80;;;;;;10373744;28;20734;-86
2023/06/27 06:47:44;;;;;;;7.45;2.20;;;19.70;94.80;;;;;;10373759;28;20268;-87
2023/06/27 06:52:47;;;;;;;3.90;2.10;;;20.00;94.70;;;;;;10340876;28;20303;-86
2023/06/27 06:57:50;;;;;;;9.93;1.80;;;19.90;92.60;;;;;;10331346;28;20237;-87
2023/06/27 07:02:52;;;;;;;7.18;2.55;;;20.20;92.20;;;;;;9968445;28;9999966;-94
2023/06/27 07:07:55;;;;;;;5.38;2.10;;;20.30;89.40;;;;;;10326896;28;20265;-93
2023/06/27 07:12:59;;;;;;;5.43;2.03;;;20.20;85.60;;;;;;10328324;28;20303;-93
2023/06/27 07:18:02;;;;;;;6.28;1.60;;;20.20;87.70;;;;;;10311483;28;20295;-93
2023/06/27 07:23:05;;;;;;;10.20;2.00;;;20.40;87.30;;;;;;10328604;28;20303;-93
2023/06/27 07:28:07;;;;;;;7.95;2.83;;;20.40;81.80;;;;;;10311183;28;20795;-94
2023/06/27 07:33:10;;;;;;;6.03;2.25;;;20.30;82.70;;;;;;10332955;28;20614;-88
2023/06/27 07:38:16;;;;;;;11.88;3.45;;;20.30;80.10;;;;;;10325297;28;20237;-91
2023/06/27 07:43:18;;;;;;;11.52;2.95;;;19.60;85.50;;;;;;10327741;28;20252;-89
2023/06/27 07:48:21;;;;;;;25.83;4.07;;;19.50;84.90;;;;;;9981047;28;10000193;-86
2023/06/27 07:53:23;;;;;;;6.15;2.15;;;19.50;91.10;;;;;;10336237;28;20241;-86
2023/06/27 07:58:26;;;;;;;11.98;2.50;;;19.90;86.00;;;;;;10336457;28;20311;-86
2023/06/27 08:03:28;;;;;;;12.52;2.88;;;19.60;80.10;;;;;;10328984;28;20711;-86
2023/06/27 08:08:31;;;;;;;10.48;3.40;;;20.00;91.50;;;;;;10325909;28;20319;-86
2023/06/27 08:13:38;;;;;;;10.70;2.35;;;20.80;88.20;;;;;;10359207;28;20263;-86
2023/06/27 08:18:41;;;;;;;17.13;3.53;;;21.60;77.70;;;;;;10326839;28;20240;-86
2023/06/27 08:23:44;;;;;;;6.97;3.47;;;21.90;80.20;;;;;;10345300;28;20249;-86
2023/06/27 08:28:46;;;;;;;7.32;2.03;;;22.40;70.00;;;;;;10338844;28;20310;-86
2023/06/27 08:33:49;;;;;;;6.63;2.47;;;22.20;64.80;;;;;;10326082;28;20248;-86
2023/06/27 08:38:51;;;;;;;12.38;2.70;;;22.00;62.10;;;;;;10336346;28;20294;-86
2023/06/27 08:43:54;;;;;;;9.75;3.13;;;22.10;75.90;;;;;;10335443;28;20251;-86
2023/06/27 08:49:02;;;;;;;15.05;2.85;;;22.40;72.80;;;;;;10336252;28;20283;-86
2023/06/27 08:54:14;;;;;;;9.43;2.05;;;22.60;72.20;;;;;;10361638;28;20267;-87
2023/06/27 08:59:19;;;;;;;4.60;2.10;;;22.80;72.30;;;;;;10345046;28;20628;-85
2023/06/27 09:04:22;;;;;;;7.15;1.98;;;22.40;71.40;;;;;;10357516;28;20247;-86
2023/06/27 09:09:25;;;;;;;6.38;2.03;;;21.80;73.90;;;;;;10348635;28;20264;-88
2023/06/27 09:14:28;;;;;;;5.43;1.92;;;21.40;73.50;;;;;;10327121;28;20661;-86
2023/06/27 09:19:32;;;;;;;7.05;1.80;;;21.00;83.90;;;;;;10326829;28;20252;-86
2023/06/27 09:24:40;;;;;;;6.47;1.92;;;20.80;81.60;;;;;;10342144;28;20235;-86
2023/06/27 09:29:43;;;;;;;5.18;2.17;;;20.80;86.50;;;;;;10366034;28;20333;-87
2023/06/27 09:34:46;;;;;;;7.28;1.80;;;20.90;90.60;;;;;;10364779;28;20239;-87
2023/06/27 09:39:49;;;;;;;6.68;2.67;;;21.10;89.20;;;;;;10366775;28;20240;-87
2023/06/27 09:44:51;;;;;;;4.07;1.77;;;20.90;90.30;;;;;;10327694;28;20241;-87
2023/06/27 09:49:54;;;;;;;4.70;1.40;;;20.90;91.00;;;;;;10356316;28;20268;-87
2023/06/27 09:54:57;;;;;;;4.82;1.20;;;20.70;81.00;;;;;;10365344;28;20650;-87
2023/06/27 10:00:00;;;;;;;5.40;1.65;;;20.20;87.90;;;;;;10363865;28;20243;-87
2023/06/27 10:05:03;;;;;;;1.60;1.23;;;20.30;88.40;;;;;;10314726;28;20270;-87
2023/06/27 10:10:07;;;;;;;2.17;1.55;;;20.60;88.70;;;;;;10315977;28;20260;-87
2023/06/27 10:15:10;;;;;;;2.55;1.65;;;20.60;91.20;;;;;;10310139;28;20236;-87
2023/06/27 10:20:13;;;;;;;3.88;2.33;;;21.10;90.00;;;;;;10333944;28;20231;-88
2023/06/27 10:25:18;;;;;;;4.75;2.08;;;21.00;88.90;;;;;;10372927;28;20336;-88
2023/06/27 10:30:20;;;;;;;4.78;2.33;;;21.10;90.20;;;;;;10370156;28;20645;-87
2023/06/27 10:35:24;;;;;;;2.35;1.85;;;21.50;85.20;;;;;;10371224;28;20279;-87
2023/06/27 10:40:29;;;;;;;4.28;2.25;;;21.90;87.60;;;;;;10369412;28;20259;-86
2023/06/27 10:45:32;;;;;;;2.22;1.70;;;22.20;77.80;;;;;;10355533;28;20702;-87
2023/06/27 10:50:37;;;;;;;5.22;1.98;;;22.30;79.40;;;;;;10371078;28;20279;-87
2023/06/27 10:55:40;;;;;;;2.03;1.80;;;21.90;60.60;;;;;;10371396;28;20302;-87
2023/06/27 11:00:46;;;;;;;2.92;1.63;;;21.90;60.90;;;;;;10370123;28;20262;-86
2023/06/27 11:05:57;;;;;;;5.03;1.75;;;21.60;64.10;;;;;;10322813;28;20772;-88
2023/06/27 11:10:59;;;;;;;2.17;1.25;;;21.80;59.90;;;;;;10338606;28;20323;-88
2023/06/27 11:16:02;;;;;;;3.10;1.60;;;21.60;57.80;;;;;;10331201;28;20232;-87
2023/06/27 11:21:05;;;;;;;3.25;1.40;;;21.80;62.80;;;;;;10329702;28;20252;-87
2023/06/27 11:26:07;;;;;;;3.03;1.27;;;22.20;66.70;;;;;;10329249;28;20244;-88
2023/06/27 11:31:10;;;;;;;5.45;1.80;;;22.00;51.00;;;;;;10366551;28;20310;-87
2023/06/27 11:36:13;;;;;;;2.33;1.65;;;22.50;63.90;;;;;;10359324;28;20263;-88
2023/06/27 11:41:22;;;;;;;3.60;1.67;;;22.80;66.40;;;;;;10329386;28;20287;-88
2023/06/27 11:46:25;;;;;;;5.60;2.25;;;23.20;61.90;;;;;;10329995;28;20252;-87
2023/06/27 11:51:38;;;;;;;4.38;1.98;;;22.60;54.30;;;;;;10310740;28;20264;-87
2023/06/27 11:56:42;;;;;;;1.80;1.60;;;22.40;53.00;;;;;;10329305;28;20272;-88
2023/06/27 12:01:45;;;;;;;6.70;2.05;;;22.50;68.10;;;;;;10326666;28;20245;-88
2023/06/27 12:06:48;;;;;;;4.13;2.03;;;22.50;55.50;;;;;;10330061;28;20232;-88
2023/06/27 12:11:54;;;;;;;5.88;1.70;;;22.50;58.20;;;;;;10348961;28;20256;-87
2023/06/27 12:17:00;;;;;;;5.85;1.85;;;22.10;58.70;;;;;;10303102;28;20292;-89
2023/06/27 12:22:02;;;;;;;4.20;1.83;;;21.80;57.80;;;;;;10340706;28;20294;-89
2023/06/27 12:27:05;;;;;;;1.90;0.95;;;22.00;59.50;;;;;;10366817;28;20722;-89
2023/06/27 12:32:07;;;;;;;3.10;1.65;;;21.50;41.30;;;;;;10319603;28;20268;-89
2023/06/27 12:37:10;;;;;;;4.90;1.50;;;21.10;48.70;;;;;;10324513;28;20627;-89
2023/06/27 12:42:12;;;;;;;3.88;1.38;;;20.80;47.00;;;;;;10346630;28;20252;-90
2023/06/27 12:47:15;;;;;;;4.93;1.73;;;20.40;46.40;;;;;;10322841;28;20276;-90
2023/06/27 12:52:18;;;;;;;4.97;1.90;;;20.00;46.20;;;;;;10329211;28;20269;-91
2023/06/27 12:57:20;;;;;;;3.33;1.40;;;19.70;65.50;;;;;;10349076;28;20243;-91
2023/06/27 13:02:23;;;;;;;4.18;1.60;;;19.20;55.90;;;;;;10326187;28;20271;-91
2023/06/27 13:07:25;;;;;;;2.67;1.05;;;18.90;73.40;;;;;;10309639;28;20241;-89
2023/06/27 13:12:29;;;;;;;4.10;1.55;;;19.00;60.90;;;;;;10317032;28;20264;-90
2023/06/27 13:17:32;;;;;;;6.88;1.80;;;19.30;63.50;;;;;;10365215;28;20228;-90
2023/06/27 13:22:35;;;;;;;4.07;1.58;;;19.70;64.00;;;;;;10346166;28;20240;-90
2023/06/27 13:27:37;;;;;;;4.47;1.27;;;20.00;60.10;;;;;;10366959;28;20265;-90
2023/06/27 13:32:40;;;;;;;3.28;1.40;;;20.60;55.20;;;;;;10365086;28;20307;-91
2023/06/27 13:37:44;;;;;;;5.47;1.25;;;20.50;58.20;;;;;;10366894;28;20987;-90
2023/06/27 13:43:02;;;;;;;5.28;1.02;;;20.40;54.40;;;;;;10349582;28;20317;-90
2023/06/27 13:48:05;;;;;;;3.10;1.98;;;20.80;50.20;;;;;;10366852;28;20294;-90
2023/06/27 13:53:08;;;;;;;2.45;1.33;;;20.70;51.60;;;;;;10351039;28;20294;-91
2023/06/27 13:58:12;;;;;;;2.90;0.93;;;21.10;49.70;;;;;;10316946;28;21075;-91
2023/06/27 14:03:15;;;;;;;5.85;1.63;;;20.90;49.20;;;;;;10309532;28;20267;-90
2023/06/27 14:08:18;;;;;;;3.50;1.83;;;21.10;51.10;;;;;;10310645;28;20236;-91
2023/06/27 14:13:20;;;;;;;2.63;1.52;;;21.00;48.90;;;;;;10310476;28;20256;-90
2023/06/27 14:18:23;;;;;;;4.95;2.03;;;20.70;51.10;;;;;;10326966;28;20272;-91
2023/06/27 14:23:27;;;;;;;3.80;1.48;;;20.50;50.70;;;;;;10333705;28;20280;-92
2023/06/27 14:28:32;;;;;;;3.65;1.90;;;20.50;58.70;;;;;;10310606;28;20244;-90
2023/06/27 14:33:35;;;;;;;1.67;0.88;;;20.30;65.50;;;;;;10348425;28;20404;-89
2023/06/27 14:38:38;;;;;;;7.05;2.03;;;20.60;60.60;;;;;;10328165;28;20237;-90
2023/06/27 14:43:40;;;;;;;2.33;1.45;;;20.50;61.70;;;;;;10325985;28;20248;-87
2023/06/27 14:48:43;;;;;;;2.50;1.20;;;20.40;66.10;;;;;;10305308;28;20244;-87
2023/06/27 14:53:46;;;;;;;4.28;1.08;;;19.30;80.30;;;;;;10325323;28;20260;-87
2023/06/27 14:58:48;;;;;;;2.33;1.55;;;19.40;80.60;;;;;;10313712;28;20287;-87
2023/06/27 15:03:51;;;;;;;4.45;1.20;;;19.80;75.50;;;;;;10333076;28;20797;-87
2023/06/27 15:08:56;;;;;;;2.13;1.00;;;20.30;71.70;;;;;;10335219;28;20273;-87
2023/06/27 15:13:58;;;;;;;2.25;1.10;;;20.80;69.80;;;;;;10332189;28;20245;-87
2023/06/27 15:19:01;;;;;;;1.85;1.08;;;21.00;68.20;;;;;;10332122;28;20307;-88
2023/06/27 15:24:06;;;;;;;1.90;0.90;;;21.00;68.60;;;;;;10354788;28;20232;-88
2023/06/27 15:29:08;;;;;;;4.05;1.42;;;20.90;69.20;;;;;;10368105;28;20264;-88
2023/06/27 15:34:11;;;;;;;1.38;1.02;;;20.80;69.30;;;;;;10348655;28;20249;-88
2023/06/27 15:39:13;;;;;;;1.92;0.95;;;21.00;69.70;;;;;;10334921;28;20263;-88
2023/06/27 15:44:16;;;;;;;2.60;0.90;;;20.90;71.70;;;;;;10000329;28;10000266;-88
2023/06/27 15:49:19;;;;;;;2.17;1.45;;;21.10;71.20;;;;;;10311667;28;20241;-88
2023/06/27 15:54:21;;;;;;;2.75;1.65;;;21.20;69.70;;;;;;10327465;28;20638;-88
2023/06/27 15:59:24;;;;;;;1.30;0.90;;;21.20;68.60;;;;;;10329740;28;20298;-88
2023/06/27 16:04:26;;;;;;;2.08;1.85;;;21.10;70.70;;;;;;10342801;28;20263;-88
2023/06/27 16:09:29;;;;;;;2.20;0.98;;;21.40;69.20;;;;;;10308291;28;20260;-88
2023/06/27 16:14:32;;;;;;;5.20;1.38;;;21.40;68.50;;;;;;10326295;28;20252;-88
2023/06/27 16:19:34;;;;;;;1.15;0.73;;;21.60;68.40;;;;;;10349395;28;20655;-88
2023/06/27 16:24:37;;;;;;;1.25;0.82;;;21.40;67.30;;;;;;10320363;28;20297;-88
2023/06/27 16:29:40;;;;;;;4.63;0.77;;;21.60;68.00;;;;;;10343340;28;20313;-88
2023/06/27 16:34:42;;;;;;;1.15;0.82;;;21.60;67.10;;;;;;10347238;28;20243;-88
2023/06/27 16:39:45;;;;;;;1.65;0.82;;;22.00;65.30;;;;;;10347338;28;20303;-88
2023/06/27 16:44:47;;;;;;;1.65;0.93;;;22.30;64.60;;;;;;10308074;28;20659;-88
2023/06/27 16:49:52;;;;;;;2.28;0.85;;;22.10;63.90;;;;;;10326811;28;20291;-88
2023/06/27 16:54:55;;;;;;;0.88;0.80;;;21.70;63.90;;;;;;10310661;28;20258;-88
2023/06/27 17:00:01;;;;;;;1.27;0.88;;;21.90;66.00;;;;;;10345427;28;20647;-88
2023/06/27 17:05:04;;;;;;;1.15;0.60;;;21.80;61.00;;;;;;10312439;28;20291;-89
2023/06/27 17:10:07;;;;;;;0.75;0.63;;;20.80;59.10;;;;;;10321140;28;20305;-90
2023/06/27 17:15:10;;;;;;;4.28;1.10;;;20.10;64.80;;;;;;10327249;28;20233;-89
2023/06/27 17:20:13;;;;;;;1.27;0.70;;;18.40;76.80;;;;;;10330629;28;20249;-88
2023/06/27 17:25:15;;;;;;;2.67;0.98;;;18.20;80.30;;;;;;10341622;28;20240;-88
2023/06/27 17:30:20;;;;;;;2.22;1.00;;;17.50;90.60;;;;;;10344688;28;20256;-88
2023/06/27 17:35:22;;;;;;;3.58;1.05;;;17.40;94.70;;;;;;10305562;28;20228;-90
2023/06/27 17:40:25;;;;;;;2.47;0.90;;;17.10;97.80;;;;;;10337170;28;20291;-90
2023/06/27 17:45:27;;;;;;;2.03;1.20;;;16.80;97.20;;;;;;10317985;28;20245;-90
2023/06/27 17:50:30;;;;;;;3.80;0.60;;;16.60;99.80;;;;;;10319131;28;20294;-90
2023/06/27 17:55:33;;;;;;;0.73;0.40;;;16.30;96.00;;;;;;10329525;28;20244;-90
2023/06/27 18:00:35;;;;;;;0.77;0.50;;;16.00;93.30;;;;;;10322963;28;20244;-90
2023/06/27 18:05:38;;;;;;;1.27;0.60;;;15.70;94.60;;;;;;10326345;28;20687;-89
2023/06/27 18:10:42;;;;;;;1.65;0.70;;;15.50;95.80;;;;;;10308897;28;20275;-88
2023/06/27 18:15:45;;;;;;;1.02;0.57;;;15.40;96.80;;;;;;10325179;28;20260;-89
2023/06/27 18:20:48;;;;;;;1.65;0.60;;;15.40;97.70;;;;;;10324005;28;20241;-90
2023/06/27 18:25:51;;;;;;;1.08;0.70;;;15.40;97.20;;;;;;10326548;28;20684;-89
2023/06/27 18:30:53;;;;;;;1.35;0.90;;;15.50;96.70;;;;;;10323369;28;20338;-89
2023/06/27 18:35:58;;;;;;;1.40;1.02;;;15.80;99.90;;;;;;10332817;28;20236;-90
2023/06/27 18:41:00;;;;;;;1.42;0.80;;;16.50;99.90;;;;;;10331215;28;20235;-88
2023/06/27 18:46:03;;;;;;;2.05;1.13;;;;;;;;;;10336256;28;20248;-90
2023/06/27 18:51:06;;;;;;;1.13;0.63;;;17.30;99.90;;;;;;10351363;28;20717;-90
2023/06/27 18:56:08;;;;;;;1.45;0.50;;;17.70;99.30;;;;;;10336150;28;20287;-90
2023/06/27 19:01:11;;;;;;;1.88;0.90;;;17.80;97.00;;;;;;10332561;28;20310;-90
2023/06/27 19:06:13;;;;;;;3.17;0.75;;;18.00;98.10;;;;;;10362056;28;20235;-89
2023/06/27 19:11:16;;;;;;;0.77;0.77;;;18.10;97.10;;;;;;10370466;28;20271;-89
2023/06/27 19:16:19;;;;;;;1.50;0.70;;;18.10;97.10;;;;;;10352432;28;20272;-89
2023/06/27 19:21:22;;;;;;;0.88;0.70;;;18.10;97.60;;;;;;10356086;28;20244;-89
2023/06/27 19:26:25;;;;;;;0.73;0.70;;;18.10;96.80;;;;;;10339436;28;20604;-89
2023/06/27 19:31:27;;;;;;;1.33;0.80;;;18.40;97.20;;;;;;10332680;28;20361;-88
2023/06/27 19:36:30;;;;;;;1.30;0.82;;;18.40;96.00;;;;;;10350803;28;20310;-89
2023/06/27 19:41:32;;;;;;;1.50;0.93;;;18.50;95.90;;;;;;10344481;28;20264;-89
2023/06/27 19:46:35;;;;;;;2.72;0.93;;;18.40;96.10;;;;;;10345832;28;20291;-89
2023/06/27 19:51:38;;;;;;;2.38;0.70;;;18.50;95.50;;;;;;10344962;28;20666;-89
2023/06/27 19:56:40;;;;;;;1.45;0.95;;;18.30;96.50;;;;;;10343849;28;20217;-89
2023/06/27 20:01:43;;;;;;;2.35;0.93;;;18.30;96.20;;;;;;10331784;28;20241;-89
2023/06/27 20:06:45;;;;;;;1.10;0.60;;;18.60;97.00;;;;;;10352390;28;20300;-90
2023/06/27 20:11:48;;;;;;;2.38;0.60;;;18.80;96.40;;;;;;10369949;28;20268;-89
2023/06/27 20:16:51;;;;;;;0.70;0.70;;;18.70;94.20;;;;;;10369244;28;20244;-90
2023/06/27 20:21:54;;;;;;;1.10;1.00;;;18.50;95.90;;;;;;10327392;28;20244;-90
2023/06/27 20:26:56;;;;;;;2.33;0.88;;;18.50;95.50;;;;;;10370970;28;20248;-90
2023/06/27 20:31:59;;;;;;;2.47;0.90;;;18.60;96.10;;;;;;10329071;28;20259;-91
2023/06/27 20:37:01;;;;;;;1.05;0.90;;;19.00;95.80;;;;;;10337708;28;20620;-92
2023/06/27 20:42:04;;;;;;;1.02;0.70;;;18.90;94.80;;;;;;10365432;28;20279;-92
2023/06/27 20:47:07;;;;;;;2.40;0.90;;;18.80;96.10;;;;;;10303793;28;20261;-93
2023/06/27 20:52:09;;;;;;;2.10;1.00;;;19.00;94.80;;;;;;10320726;28;20264;-91
2023/06/27 20:57:12;;;;;;;2.63;0.90;;;19.20;94.20;;;;;;10349057;28;20209;-92
2023/06/27 21:02:15;;;;;;;1.92;0.75;;;19.30;94.00;;;;;;10324330;28;20268;-92
2023/06/27 21:07:18;;;;;;;1.30;1.00;;;19.20;93.90;;;;;;10367100;28;20660;-91
2023/06/27 21:12:21;;;;;;;1.13;0.70;;;19.10;92.30;;;;;;10332639;28;20264;-91
2023/06/27 21:17:27;;;;;;;1.58;0.98;;;19.10;94.80;;;;;;10346073;28;20236;-89
2023/06/27 21:22:29;;;;;;;2.05;0.93;;;19.30;93.30;;;;;;10330062;28;20707;-91
2023/06/27 21:27:32;;;;;;;0.88;0.70;;;19.50;92.80;;;;;;10326112;28;20327;-92
2023/06/27 21:32:53;;;;;;;1.38;0.80;;;19.50;92.00;;;;;;10346430;28;20327;-89
2023/06/27 21:37:56;;;;;;;1.23;0.80;;;19.40;91.70;;;;;;10327038;28;20240;-89
2023/06/27 21:43:00;;;;;;;3.63;0.63;;;19.50;92.90;;;;;;10326824;28;20292;-90
2023/06/27 21:48:03;;;;;;;1.13;0.88;;;19.40;92.90;;;;;;10347828;28;20299;-90
2023/06/27 21:53:06;;;;;;;1.10;0.80;;;19.70;92.20;;;;;;10365450;28;20268;-90
2023/06/27 21:58:08;;;;;;;1.13;0.80;;;19.70;91.80;;;;;;10366768;28;20235;-91
2023/06/27 22:03:13;;;;;;;3.50;1.38;;;19.90;91.60;;;;;;10335714;28;20224;-90
2023/06/27 22:08:16;;;;;;;1.77;1.00;;;19.70;89.50;;;;;;10325346;28;20287;-89
2023/06/27 22:13:19;;;;;;;1.33;0.80;;;19.40;88.10;;;;;;10324215;28;20322;-90
2023/06/27 22:18:22;;;;;;;0.70;0.70;;;19.10;89.80;;;;;;10307513;28;20268;-90
2023/06/27 22:23:24;;;;;;;1.60;0.90;;;19.00;93.00;;;;;;10300209;28;20253;-91
2023/06/27 22:28:27;;;;;;;1.02;0.77;;;18.80;92.10;;;;;;10309969;28;20252;-89
2023/06/27 22:33:29;;;;;;;1.92;1.00;;;18.60;94.50;;;;;;10364323;28;20263;-90
2023/06/27 22:38:32;;;;;;;3.00;1.00;;;18.50;93.70;;;;;;10365279;28;20761;-89
2023/06/27 22:43:34;;;;;;;1.77;0.88;;;18.40;94.30;;;;;;10365942;28;20243;-90
2023/06/27 22:48:37;;;;;;;1.48;0.80;;;18.20;95.50;;;;;;10338581;28;20249;-89
2023/06/27 22:53:43;;;;;;;1.63;1.00;;;18.20;95.20;;;;;;10343065;28;20273;-89
2023/06/27 22:58:46;;;;;;;0.95;0.82;;;18.20;95.80;;;;;;10323680;28;20648;-88
2023/06/27 23:03:48;;;;;;;2.28;0.93;;;18.20;95.80;;;;;;10346187;28;20615;-89
2023/06/27 23:08:51;;;;;;;1.10;0.90;;;18.20;95.50;;;;;;10364797;28;20700;-90
2023/06/27 23:13:54;;;;;;;1.35;0.82;;;18.30;96.70;;;;;;10365186;28;20326;-90
2023/06/27 23:18:59;;;;;;;1.42;0.90;;;18.40;96.20;;;;;;10337583;28;20241;-89
2023/06/27 23:24:03;;;;;;;2.58;0.90;;;18.40;96.00;;;;;;10330364;28;20271;-89
2023/06/27 23:29:05;;;;;;;1.27;0.98;;;18.10;95.80;;;;;;10346547;28;20255;-90
2023/06/27 23:34:11;;;;;;;2.40;1.13;;;18.10;96.70;;;;;;10330937;28;20264;-89
2023/06/27 23:39:13;;;;;;;1.05;0.63;;;18.10;95.40;;;;;;10331632;28;20276;-90
2023/06/27 23:44:16;;;;;;;1.73;0.90;;;18.00;97.20;;;;;;10330511;28;20758;-90
2023/06/27 23:49:18;;;;;;;0.90;0.88;;;17.90;97.50;;;;;;10313737;28;20244;-90
2023/06/27 23:54:21;;;;;;;1.25;0.90;;;18.20;97.20;;;;;;10329643;28;20264;-90
2023/06/27 23:59:23;;;;;;;1.02;0.88;;;18.30;97.00;;;;;;10352227;28;20268;-89
